sensor_id;sensor_type;location;lat;lon;timestamp;pressure;altitude;pressure_sealevel;temperature;humidity
19576;BME280;41589;51.196;7.074;2023-05-09T00:02:12;99179.63;;;16.81;79.78
19576;BME280;41589;51.196;7.074;2023-05-09T00:07:20;99182.69;;;16.77;80.03
19576;BME280;41589;51.196;7.074;2023-05-09T00:12:35;99167.72;;;16.77;80.02
19576;BME280;41589;51.196;7.074;2023-05-09T00:17:40;99174.66;;;16.75;80.02
19576;BME280;41589;51.196;7.074;2023-05-09T00:23:01;99162.75;;;16.71;80.36
19576;BME280;41589;51.196;7.074;2023-05-09T00:28:02;99160.41;;;16.70;80.27
19576;BME280;41589;51.196;7.074;2023-05-09T00:33:02;99156.53;;;16.67;80.56
19576;BME280;41589;51.196;7.074;2023-05-09T00:38:09;99146.19;;;16.70;80.20
19576;BME280;41589;51.196;7.074;2023-05-09T00:43:16;99144.06;;;16.65;80.36
19576;BME280;41589;51.196;7.074;2023-05-09T00:48:31;99140.41;;;16.59;80.04
19576;BME280;41589;51.196;7.074;2023-05-09T00:53:35;99130.59;;;16.60;80.61
19576;BME280;41589;51.196;7.074;2023-05-09T00:58:35;99126.53;;;16.66;80.25
19576;BME280;41589;51.196;7.074;2023-05-09T01:03:38;99114.44;;;16.71;80.09
19576;BME280;41589;51.196;7.074;2023-05-09T01:09:02;99113.13;;;16.67;80.25
19576;BME280;41589;51.196;7.074;2023-05-09T01:20:00;99102.00;;;16.69;80.22
19576;BME280;41589;51.196;7.074;2023-05-09T01:30:59;99099.34;;;16.60;80.40
19576;BME280;41589;51.196;7.074;2023-05-09T01:36:15;99091.34;;;16.64;80.28
19576;BME280;41589;51.196;7.074;2023-05-09T01:41:22;99082.03;;;16.63;79.77
19576;BME280;41589;51.196;7.074;2023-05-09T01:46:31;99078.16;;;16.61;80.00
19576;BME280;41589;51.196;7.074;2023-05-09T01:51:38;99086.16;;;16.57;80.11
19576;BME280;41589;51.196;7.074;2023-05-09T01:56:42;99073.22;;;16.56;79.77
19576;BME280;41589;51.196;7.074;2023-05-09T02:01:47;99073.69;;;16.54;80.01
19576;BME280;41589;51.196;7.074;2023-05-09T02:06:49;99064.69;;;16.56;79.96
19576;BME280;41589;51.196;7.074;2023-05-09T02:11:51;99074.03;;;16.62;79.90
19576;BME280;41589;51.196;7.074;2023-05-09T02:16:55;99085.22;;;16.65;79.94
19576;BME280;41589;51.196;7.074;2023-05-09T02:21:56;99082.38;;;16.65;79.87
19576;BME280;41589;51.196;7.074;2023-05-09T02:27:02;99088.34;;;16.73;79.86
19576;BME280;41589;51.196;7.074;2023-05-09T02:32:07;99079.88;;;16.84;79.83
19576;BME280;41589;51.196;7.074;2023-05-09T02:37:09;99075.75;;;16.85;79.36
19576;BME280;41589;51.196;7.074;2023-05-09T02:42:14;99065.97;;;16.86;79.52
19576;BME280;41589;51.196;7.074;2023-05-09T02:47:20;99070.88;;;16.91;78.99
19576;BME280;41589;51.196;7.074;2023-05-09T02:52:21;99055.06;;;16.79;79.40
19576;BME280;41589;51.196;7.074;2023-05-09T02:57:25;99052.94;;;16.74;79.44
19576;BME280;41589;51.196;7.074;2023-05-09T03:02:26;99050.63;;;16.72;79.55
19576;BME280;41589;51.196;7.074;2023-05-09T03:07:28;99066.22;;;16.88;79.48
19576;BME280;41589;51.196;7.074;2023-05-09T03:12:29;99049.69;;;16.92;79.07
19576;BME280;41589;51.196;7.074;2023-05-09T03:17:33;99049.19;;;16.94;78.96
19576;BME280;41589;51.196;7.074;2023-05-09T03:22:35;99039.63;;;16.91;79.06
19576;BME280;41589;51.196;7.074;2023-05-09T03:27:38;99041.19;;;16.92;79.28
19576;BME280;41589;51.196;7.074;2023-05-09T03:32:43;99038.63;;;17.00;79.30
19576;BME280;41589;51.196;7.074;2023-05-09T03:37:43;99041.44;;;16.94;79.09
19576;BME280;41589;51.196;7.074;2023-05-09T03:42:44;99042.72;;;16.93;79.24
19576;BME280;41589;51.196;7.074;2023-05-09T03:47:44;99038.84;;;16.91;79.33
19576;BME280;41589;51.196;7.074;2023-05-09T03:52:45;99036.31;;;16.98;79.44
19576;BME280;41589;51.196;7.074;2023-05-09T03:57:49;99024.13;;;16.92;79.12
19576;BME280;41589;51.196;7.074;2023-05-09T04:02:50;99016.91;;;16.97;79.34
19576;BME280;41589;51.196;7.074;2023-05-09T04:08:02;99004.75;;;16.96;79.29
19576;BME280;41589;51.196;7.074;2023-05-09T04:13:03;99008.09;;;16.95;79.04
19576;BME280;41589;51.196;7.074;2023-05-09T04:18:04;99001.88;;;16.91;79.53
19576;BME280;41589;51.196;7.074;2023-05-09T04:23:05;98999.03;;;16.91;79.76
19576;BME280;41589;51.196;7.074;2023-05-09T04:28:06;98998.31;;;17.01;79.47
19576;BME280;41589;51.196;7.074;2023-05-09T04:33:08;98987.41;;;16.94;79.64
19576;BME280;41589;51.196;7.074;2023-05-09T04:38:08;98985.09;;;16.93;79.58
19576;BME280;41589;51.196;7.074;2023-05-09T04:43:09;98972.94;;;16.92;79.80
19576;BME280;41589;51.196;7.074;2023-05-09T04:48:10;98973.97;;;16.95;79.65
19576;BME280;41589;51.196;7.074;2023-05-09T04:53:11;98975.31;;;16.99;79.58
19576;BME280;41589;51.196;7.074;2023-05-09T04:58:12;98968.06;;;16.98;79.62
19576;BME280;41589;51.196;7.074;2023-05-09T05:03:12;98953.31;;;16.94;79.44
19576;BME280;41589;51.196;7.074;2023-05-09T05:08:13;98961.09;;;16.99;79.72
19576;BME280;41589;51.196;7.074;2023-05-09T05:13:16;98953.59;;;17.02;79.69
19576;BME280;41589;51.196;7.074;2023-05-09T05:18:20;98959.53;;;17.04;79.80
19576;BME280;41589;51.196;7.074;2023-05-09T05:23:20;98956.47;;;17.08;80.06
19576;BME280;41589;51.196;7.074;2023-05-09T05:28:23;98953.91;;;17.10;80.17
19576;BME280;41589;51.196;7.074;2023-05-09T05:33:24;98945.41;;;17.26;80.29
19576;BME280;41589;51.196;7.074;2023-05-09T05:38:25;98944.13;;;17.33;80.23
19576;BME280;41589;51.196;7.074;2023-05-09T05:43:28;98935.34;;;17.42;79.68
19576;BME280;41589;51.196;7.074;2023-05-09T05:48:30;98941.56;;;17.52;79.78
19576;BME280;41589;51.196;7.074;2023-05-09T05:53:31;98926.31;;;17.55;79.53
19576;BME280;41589;51.196;7.074;2023-05-09T05:58:32;98929.97;;;17.61;79.13
19576;BME280;41589;51.196;7.074;2023-05-09T06:03:32;98928.69;;;17.62;79.17
19576;BME280;41589;51.196;7.074;2023-05-09T06:08:36;98914.19;;;17.77;79.23
19576;BME280;41589;51.196;7.074;2023-05-09T06:13:36;98909.53;;;18.02;78.93
19576;BME280;41589;51.196;7.074;2023-05-09T06:18:39;98905.09;;;18.17;78.24
19576;BME280;41589;51.196;7.074;2023-05-09T06:23:40;98904.53;;;18.30;77.98
19576;BME280;41589;51.196;7.074;2023-05-09T06:28:40;98890.03;;;18.39;77.90
19576;BME280;41589;51.196;7.074;2023-05-09T06:33:40;98890.53;;;18.55;77.45
19576;BME280;41589;51.196;7.074;2023-05-09T06:38:41;98888.13;;;18.75;76.71
19576;BME280;41589;51.196;7.074;2023-05-09T06:43:41;98887.28;;;18.86;76.44
19576;BME280;41589;51.196;7.074;2023-05-09T06:48:41;98878.56;;;19.14;76.39
19576;BME280;41589;51.196;7.074;2023-05-09T06:53:42;98867.81;;;19.37;76.15
19576;BME280;41589;51.196;7.074;2023-05-09T06:58:42;98859.66;;;19.52;76.18
19576;BME280;41589;51.196;7.074;2023-05-09T07:03:43;98861.09;;;19.65;75.80
19576;BME280;41589;51.196;7.074;2023-05-09T07:08:43;98858.03;;;19.87;74.04
19576;BME280;41589;51.196;7.074;2023-05-09T07:13:44;98848.78;;;20.05;73.11
19576;BME280;41589;51.196;7.074;2023-05-09T07:18:44;98838.88;;;20.12;73.37
19576;BME280;41589;51.196;7.074;2023-05-09T07:23:44;98825.56;;;20.39;71.89
19576;BME280;41589;51.196;7.074;2023-05-09T07:28:45;98826.09;;;20.37;71.02
19576;BME280;41589;51.196;7.074;2023-05-09T07:33:45;98811.00;;;20.42;70.02
19576;BME280;41589;51.196;7.074;2023-05-09T07:38:45;98813.72;;;20.29;69.62
19576;BME280;41589;51.196;7.074;2023-05-09T07:43:48;98810.41;;;20.01;68.39
19576;BME280;41589;51.196;7.074;2023-05-09T07:48:48;98807.78;;;19.78;68.38
19576;BME280;41589;51.196;7.074;2023-05-09T07:53:49;98810.69;;;19.97;69.15
19576;BME280;41589;51.196;7.074;2023-05-09T07:58:49;98808.47;;;20.14;67.35
19576;BME280;41589;51.196;7.074;2023-05-09T08:03:49;98806.59;;;20.41;67.52
19576;BME280;41589;51.196;7.074;2023-05-09T08:08:50;98801.59;;;20.85;66.28
19576;BME280;41589;51.196;7.074;2023-05-09T08:13:51;98783.19;;;21.31;64.66
19576;BME280;41589;51.196;7.074;2023-05-09T08:18:51;98761.34;;;21.47;63.58
19576;BME280;41589;51.196;7.074;2023-05-09T08:23:52;98765.38;;;21.25;62.38
19576;BME280;41589;51.196;7.074;2023-05-09T08:28:52;98757.84;;;21.22;61.64
19576;BME280;41589;51.196;7.074;2023-05-09T08:33:53;98749.94;;;20.96;61.85
19576;BME280;41589;51.196;7.074;2023-05-09T08:38:53;98756.13;;;21.00;61.90
19576;BME280;41589;51.196;7.074;2023-05-09T08:43:54;98741.41;;;21.10;61.35
19576;BME280;41589;51.196;7.074;2023-05-09T08:48:55;98733.34;;;21.40;61.09
19576;BME280;41589;51.196;7.074;2023-05-09T08:53:57;98726.94;;;21.93;60.70
19576;BME280;41589;51.196;7.074;2023-05-09T08:58:58;98724.03;;;22.45;59.19
19576;BME280;41589;51.196;7.074;2023-05-09T09:03:59;98733.75;;;22.29;57.36
19576;BME280;41589;51.196;7.074;2023-05-09T09:09:00;98715.16;;;22.57;55.83
19576;BME280;41589;51.196;7.074;2023-05-09T09:14:05;98718.66;;;22.97;56.37
19576;BME280;41589;51.196;7.074;2023-05-09T09:19:11;98700.84;;;23.32;54.56
19576;BME280;41589;51.196;7.074;2023-05-09T09:24:13;98700.81;;;23.74;53.52
19576;BME280;41589;51.196;7.074;2023-05-09T09:29:14;98688.53;;;24.10;52.02
19576;BME280;41589;51.196;7.074;2023-05-09T09:34:20;98694.59;;;24.35;49.67
19576;BME280;41589;51.196;7.074;2023-05-09T09:39:27;98678.47;;;24.32;48.95
19576;BME280;41589;51.196;7.074;2023-05-09T09:44:40;98685.75;;;24.84;48.33
19576;BME280;41589;51.196;7.074;2023-05-09T09:50:00;98671.38;;;24.84;46.32
19576;BME280;41589;51.196;7.074;2023-05-09T09:55:15;98672.06;;;24.54;47.85
19576;BME280;41589;51.196;7.074;2023-05-09T10:00:27;98674.84;;;24.31;46.33
19576;BME280;41589;51.196;7.074;2023-05-09T10:05:41;98654.66;;;23.80;47.01
19576;BME280;41589;51.196;7.074;2023-05-09T10:10:48;98642.47;;;23.95;46.32
19576;BME280;41589;51.196;7.074;2023-05-09T10:16:09;98639.16;;;24.27;46.51
19576;BME280;41589;51.196;7.074;2023-05-09T10:21:17;98634.44;;;24.44;44.72
19576;BME280;41589;51.196;7.074;2023-05-09T10:26:26;98635.78;;;24.43;44.90
19576;BME280;41589;51.196;7.074;2023-05-09T10:32:15;98627.47;;;24.32;44.84
19576;BME280;41589;51.196;7.074;2023-05-09T10:37:39;98626.09;;;24.18;44.89
19576;BME280;41589;51.196;7.074;2023-05-09T10:42:48;98619.63;;;23.81;45.06
19576;BME280;41589;51.196;7.074;2023-05-09T10:48:04;98617.69;;;23.76;45.07
19576;BME280;41589;51.196;7.074;2023-05-09T10:53:09;98601.50;;;23.66;45.90
19576;BME280;41589;51.196;7.074;2023-05-09T10:58:31;98605.44;;;23.76;44.59
19576;BME280;41589;51.196;7.074;2023-05-09T11:03:56;98575.22;;;23.54;46.16
19576;BME280;41589;51.196;7.074;2023-05-09T11:08:57;98577.53;;;23.55;47.70
19576;BME280;41589;51.196;7.074;2023-05-09T11:19:58;98557.75;;;23.52;49.24
19576;BME280;41589;51.196;7.074;2023-05-09T11:25:05;98559.09;;;23.51;49.20
19576;BME280;41589;51.196;7.074;2023-05-09T11:30:07;98543.91;;;23.43;48.24
19576;BME280;41589;51.196;7.074;2023-05-09T11:35:24;98547.22;;;23.47;47.43
19576;BME280;41589;51.196;7.074;2023-05-09T11:40:32;98534.31;;;23.32;47.81
19576;BME280;41589;51.196;7.074;2023-05-09T11:45:53;98529.94;;;23.03;47.63
19576;BME280;41589;51.196;7.074;2023-05-09T11:51:00;98519.69;;;22.94;47.80
19576;BME280;41589;51.196;7.074;2023-05-09T11:56:11;98514.31;;;23.19;47.76
19576;BME280;41589;51.196;7.074;2023-05-09T12:01:13;98510.47;;;23.53;47.05
19576;BME280;41589;51.196;7.074;2023-05-09T12:06:29;98496.50;;;23.49;46.72
19576;BME280;41589;51.196;7.074;2023-05-09T12:11:37;98489.72;;;23.75;45.52
19576;BME280;41589;51.196;7.074;2023-05-09T12:16:48;98478.66;;;23.87;44.67
19576;BME280;41589;51.196;7.074;2023-05-09T12:22:01;98470.59;;;23.85;43.76
19576;BME280;41589;51.196;7.074;2023-05-09T12:27:15;98470.97;;;23.82;44.28
19576;BME280;41589;51.196;7.074;2023-05-09T12:32:30;98458.91;;;23.91;44.39
19576;BME280;41589;51.196;7.074;2023-05-09T12:37:33;98451.06;;;23.92;44.72
19576;BME280;41589;51.196;7.074;2023-05-09T12:42:59;98447.03;;;23.87;44.63
19576;BME280;41589;51.196;7.074;2023-05-09T12:48:16;98444.88;;;23.72;44.57
19576;BME280;41589;51.196;7.074;2023-05-09T12:53:27;98434.78;;;23.86;45.38
19576;BME280;41589;51.196;7.074;2023-05-09T12:58:46;98426.53;;;23.90;43.99
19576;BME280;41589;51.196;7.074;2023-05-09T13:04:01;98428.66;;;23.90;44.07
19576;BME280;41589;51.196;7.074;2023-05-09T13:09:16;98415.44;;;23.95;43.92
19576;BME280;41589;51.196;7.074;2023-05-09T13:14:38;98408.94;;;23.86;43.29
19576;BME280;41589;51.196;7.074;2023-05-09T13:20:19;98400.66;;;23.75;43.73
19576;BME280;41589;51.196;7.074;2023-05-09T13:25:46;98393.88;;;23.57;44.29
19576;BME280;41589;51.196;7.074;2023-05-09T13:31:10;98396.50;;;23.40;44.59
19576;BME280;41589;51.196;7.074;2023-05-09T13:36:15;98380.72;;;23.70;44.44
19576;BME280;41589;51.196;7.074;2023-05-09T13:41:24;98369.41;;;23.64;44.37
19576;BME280;41589;51.196;7.074;2023-05-09T13:46:36;98367.66;;;23.61;44.75
19576;BME280;41589;51.196;7.074;2023-05-09T13:51:56;98359.59;;;23.52;44.75
19576;BME280;41589;51.196;7.074;2023-05-09T13:57:23;98355.19;;;23.43;44.75
19576;BME280;41589;51.196;7.074;2023-05-09T14:02:38;98357.28;;;23.43;44.76
19576;BME280;41589;51.196;7.074;2023-05-09T14:07:41;98353.16;;;23.08;45.41
19576;BME280;41589;51.196;7.074;2023-05-09T14:18:07;98351.81;;;23.09;46.01
19576;BME280;41589;51.196;7.074;2023-05-09T14:23:43;98329.50;;;23.30;45.88
19576;BME280;41589;51.196;7.074;2023-05-09T14:29:33;98328.75;;;22.86;48.12
19576;BME280;41589;51.196;7.074;2023-05-09T14:35:19;98337.78;;;21.83;52.63
19576;BME280;41589;51.196;7.074;2023-05-09T14:40:31;98342.22;;;20.95;55.82
19576;BME280;41589;51.196;7.074;2023-05-09T14:45:42;98347.19;;;20.42;58.48
19576;BME280;41589;51.196;7.074;2023-05-09T14:50:50;98334.38;;;20.03;61.17
19576;BME280;41589;51.196;7.074;2023-05-09T14:55:56;98314.69;;;19.86;62.94
19576;BME280;41589;51.196;7.074;2023-05-09T15:01:04;98329.88;;;19.49;65.03
19576;BME280;41589;51.196;7.074;2023-05-09T15:06:17;98331.75;;;19.28;67.22
19576;BME280;41589;51.196;7.074;2023-05-09T15:11:27;98334.38;;;19.07;69.50
19576;BME280;41589;51.196;7.074;2023-05-09T15:16:42;98326.44;;;18.81;71.86
19576;BME280;41589;51.196;7.074;2023-05-09T15:21:47;98315.16;;;18.51;73.58
19576;BME280;41589;51.196;7.074;2023-05-09T15:26:50;98318.97;;;18.35;75.19
19576;BME280;41589;51.196;7.074;2023-05-09T15:31:53;98317.00;;;18.24;75.04
19576;BME280;41589;51.196;7.074;2023-05-09T15:36:55;98316.06;;;18.16;75.45
19576;BME280;41589;51.196;7.074;2023-05-09T15:41:56;98316.69;;;18.28;75.54
19576;BME280;41589;51.196;7.074;2023-05-09T15:46:56;98310.34;;;18.40;75.63
19576;BME280;41589;51.196;7.074;2023-05-09T15:51:57;98320.72;;;18.38;76.09
19576;BME280;41589;51.196;7.074;2023-05-09T15:56:57;98305.41;;;18.41;76.13
19576;BME280;41589;51.196;7.074;2023-05-09T16:01:58;98303.47;;;18.30;76.26
19576;BME280;41589;51.196;7.074;2023-05-09T16:06:58;98301.09;;;18.34;76.51
19576;BME280;41589;51.196;7.074;2023-05-09T16:12:00;98308.63;;;18.32;76.44
19576;BME280;41589;51.196;7.074;2023-05-09T16:17:01;98296.94;;;18.35;76.35
19576;BME280;41589;51.196;7.074;2023-05-09T16:22:01;98293.59;;;18.31;77.07
19576;BME280;41589;51.196;7.074;2023-05-09T16:27:02;98282.22;;;18.31;76.89
19576;BME280;41589;51.196;7.074;2023-05-09T16:32:02;98281.97;;;18.29;77.79
19576;BME280;41589;51.196;7.074;2023-05-09T16:37:02;98288.44;;;18.30;77.77
19576;BME280;41589;51.196;7.074;2023-05-09T16:42:03;98281.16;;;18.34;77.87
19576;BME280;41589;51.196;7.074;2023-05-09T16:47:04;98285.19;;;18.44;78.28
19576;BME280;41589;51.196;7.074;2023-05-09T16:52:04;98272.28;;;18.38;78.51
19576;BME280;41589;51.196;7.074;2023-05-09T16:57:05;98269.34;;;18.49;78.37
19576;BME280;41589;51.196;7.074;2023-05-09T17:02:05;98269.28;;;18.55;78.24
19576;BME280;41589;51.196;7.074;2023-05-09T17:07:06;98261.56;;;18.50;78.06
19576;BME280;41589;51.196;7.074;2023-05-09T17:12:06;98256.63;;;18.50;78.37
19576;BME280;41589;51.196;7.074;2023-05-09T17:17:07;98247.53;;;18.52;78.48
19576;BME280;41589;51.196;7.074;2023-05-09T17:22:07;98239.47;;;18.56;78.06
19576;BME280;41589;51.196;7.074;2023-05-09T17:27:07;98244.06;;;18.59;78.30
19576;BME280;41589;51.196;7.074;2023-05-09T17:32:09;98244.47;;;18.50;78.42
19576;BME280;41589;51.196;7.074;2023-05-09T17:37:10;98244.03;;;18.40;78.40
19576;BME280;41589;51.196;7.074;2023-05-09T17:42:10;98236.25;;;18.40;78.46
19576;BME280;41589;51.196;7.074;2023-05-09T17:47:11;98232.72;;;18.34;78.37
19576;BME280;41589;51.196;7.074;2023-05-09T17:52:13;98224.25;;;18.29;78.70
19576;BME280;41589;51.196;7.074;2023-05-09T17:57:13;98211.41;;;18.22;78.63
19576;BME280;41589;51.196;7.074;2023-05-09T18:02:13;98229.75;;;18.02;78.84
19576;BME280;41589;51.196;7.074;2023-05-09T18:07:14;98220.44;;;17.53;80.53
19576;BME280;41589;51.196;7.074;2023-05-09T18:12:14;98223.09;;;17.45;80.10
19576;BME280;41589;51.196;7.074;2023-05-09T18:17:14;98230.16;;;17.39;80.16
19576;BME280;41589;51.196;7.074;2023-05-09T18:22:15;98229.81;;;17.18;80.07
19576;BME280;41589;51.196;7.074;2023-05-09T18:27:17;98224.34;;;16.90;81.19
19576;BME280;41589;51.196;7.074;2023-05-09T18:32:18;98219.38;;;16.96;80.93
19576;BME280;41589;51.196;7.074;2023-05-09T18:37:19;98225.13;;;16.85;80.63
19576;BME280;41589;51.196;7.074;2023-05-09T18:42:21;98222.72;;;16.59;81.53
19576;BME280;41589;51.196;7.074;2023-05-09T18:47:22;98216.25;;;16.58;81.51
19576;BME280;41589;51.196;7.074;2023-05-09T18:52:22;98205.50;;;16.45;82.08
19576;BME280;41589;51.196;7.074;2023-05-09T18:57:23;98218.09;;;16.56;81.98
19576;BME280;41589;51.196;7.074;2023-05-09T19:02:23;98209.03;;;16.57;81.70
19576;BME280;41589;51.196;7.074;2023-05-09T19:07:24;98216.75;;;16.62;81.78
19576;BME280;41589;51.196;7.074;2023-05-09T19:12:26;98216.94;;;16.75;81.33
19576;BME280;41589;51.196;7.074;2023-05-09T19:17:26;98217.25;;;16.61;81.40
19576;BME280;41589;51.196;7.074;2023-05-09T19:22:27;98214.56;;;16.38;81.78
19576;BME280;41589;51.196;7.074;2023-05-09T19:27:27;98214.94;;;16.12;82.63
19576;BME280;41589;51.196;7.074;2023-05-09T19:32:28;98217.47;;;16.27;82.70
19576;BME280;41589;51.196;7.074;2023-05-09T19:37:29;98214.94;;;16.12;83.44
19576;BME280;41589;51.196;7.074;2023-05-09T19:42:31;98208.72;;;16.20;84.11
19576;BME280;41589;51.196;7.074;2023-05-09T19:47:31;98214.44;;;16.08;84.39
19576;BME280;41589;51.196;7.074;2023-05-09T19:52:32;98210.88;;;15.91;85.86
19576;BME280;41589;51.196;7.074;2023-05-09T19:57:32;98220.00;;;15.73;87.93
19576;BME280;41589;51.196;7.074;2023-05-09T20:02:33;98221.53;;;15.57;87.68
19576;BME280;41589;51.196;7.074;2023-05-09T20:07:33;98218.44;;;15.66;86.95
19576;BME280;41589;51.196;7.074;2023-05-09T20:12:34;98215.84;;;15.68;86.51
19576;BME280;41589;51.196;7.074;2023-05-09T20:17:35;98214.31;;;15.62;86.52
19576;BME280;41589;51.196;7.074;2023-05-09T20:22:35;98223.63;;;15.40;85.73
19576;BME280;41589;51.196;7.074;2023-05-09T20:27:38;98224.19;;;15.21;85.76
19576;BME280;41589;51.196;7.074;2023-05-09T20:32:38;98221.84;;;15.03;85.58
19576;BME280;41589;51.196;7.074;2023-05-09T20:37:42;98219.78;;;14.92;86.02
19576;BME280;41589;51.196;7.074;2023-05-09T20:42:42;98212.31;;;14.84;86.58
19576;BME280;41589;51.196;7.074;2023-05-09T20:47:42;98216.44;;;14.83;86.98
19576;BME280;41589;51.196;7.074;2023-05-09T20:52:43;98207.16;;;14.77;87.29
19576;BME280;41589;51.196;7.074;2023-05-09T20:57:43;98215.06;;;14.50;88.42
19576;BME280;41589;51.196;7.074;2023-05-09T21:02:44;98210.44;;;14.47;89.81
19576;BME280;41589;51.196;7.074;2023-05-09T21:07:44;98205.75;;;14.33;91.25
19576;BME280;41589;51.196;7.074;2023-05-09T21:12:44;98214.75;;;14.26;93.57
19576;BME280;41589;51.196;7.074;2023-05-09T21:17:45;98209.34;;;14.16;94.66
19576;BME280;41589;51.196;7.074;2023-05-09T21:22:45;98208.81;;;14.18;95.75
19576;BME280;41589;51.196;7.074;2023-05-09T21:27:46;98212.91;;;14.11;96.49
19576;BME280;41589;51.196;7.074;2023-05-09T21:32:49;98216.78;;;14.20;98.19
19576;BME280;41589;51.196;7.074;2023-05-09T21:37:49;98204.66;;;14.08;97.98
19576;BME280;41589;51.196;7.074;2023-05-09T21:42:51;98208.19;;;13.92;98.79
19576;BME280;41589;51.196;7.074;2023-05-09T21:47:51;98201.56;;;14.06;100.00
19576;BME280;41589;51.196;7.074;2023-05-09T21:52:52;98212.06;;;13.94;100.00
19576;BME280;41589;51.196;7.074;2023-05-09T21:57:55;98206.66;;;13.91;100.00
19576;BME280;41589;51.196;7.074;2023-05-09T22:02:57;98207.19;;;13.95;100.00
19576;BME280;41589;51.196;7.074;2023-05-09T22:07:57;98206.69;;;13.96;100.00
19576;BME280;41589;51.196;7.074;2023-05-09T22:12:58;98203.81;;;13.85;100.00
19576;BME280;41589;51.196;7.074;2023-05-09T22:17:58;98198.84;;;13.69;100.00
19576;BME280;41589;51.196;7.074;2023-05-09T22:22:58;98199.84;;;13.66;100.00
19576;BME280;41589;51.196;7.074;2023-05-09T22:27:59;98198.00;;;13.63;100.00
19576;BME280;41589;51.196;7.074;2023-05-09T22:32:59;98195.66;;;13.55;100.00
19576;BME280;41589;51.196;7.074;2023-05-09T22:38:00;98209.22;;;13.51;100.00
19576;BME280;41589;51.196;7.074;2023-05-09T22:43:00;98201.50;;;13.46;100.00
19576;BME280;41589;51.196;7.074;2023-05-09T22:48:00;98208.72;;;13.47;100.00
19576;BME280;41589;51.196;7.074;2023-05-09T22:53:01;98202.31;;;13.52;100.00
19576;BME280;41589;51.196;7.074;2023-05-09T22:58:01;98195.88;;;13.52;100.00
19576;BME280;41589;51.196;7.074;2023-05-09T23:03:01;98196.16;;;13.54;100.00
19576;BME280;41589;51.196;7.074;2023-05-09T23:08:03;98195.16;;;13.57;100.00
19576;BME280;41589;51.196;7.074;2023-05-09T23:13:03;98206.03;;;13.64;100.00
19576;BME280;41589;51.196;7.074;2023-05-09T23:18:04;98190.03;;;13.61;100.00
19576;BME280;41589;51.196;7.074;2023-05-09T23:23:04;98198.47;;;13.13;100.00
19576;BME280;41589;51.196;7.074;2023-05-09T23:28:05;98200.50;;;13.49;100.00
19576;BME280;41589;51.196;7.074;2023-05-09T23:33:05;98194.63;;;13.53;100.00
19576;BME280;41589;51.196;7.074;2023-05-09T23:38:05;98197.44;;;13.53;100.00
19576;BME280;41589;51.196;7.074;2023-05-09T23:43:06;98206.69;;;13.53;100.00
19576;BME280;41589;51.196;7.074;2023-05-09T23:48:06;98189.75;;;13.59;100.00
19576;BME280;41589;51.196;7.074;2023-05-09T23:53:06;98200.03;;;13.56;100.00
19576;BME280;41589;51.196;7.074;2023-05-09T23:58:07;98199.22;;;13.50;100.00
